Terminal Aerodrome Forecast
Issued by NWS Corpus Christi, TX

Home | Current Version | Previous Version | Text Only | Print | Product List | Glossary On
Versions: 1 2 3 4 5 6 7 8 9 10 11 12 13 14 15 16
228
FTUS44 KCRP 250532
TAFVCT
TAF
KVCT 250532Z 2506/2606 14004KT P6SM SCT250
     FM250900 VRB03KT 5SM BR SCT015
      TEMPO 2510/2512 2SM BR BKN015
     FM251400 16005KT P6SM VCSH SCT025
      TEMPO 2514/2517 BKN025
     FM251800 14008KT P6SM VCTS BKN035CB PROB30 2518/2522 5SM TSRA
      OVC025CB
     FM252300 13010KT P6SM SCT040 BKN250
     FM260300 11006KT P6SM SCT250=

USA.gov is the U.S. government's official web portal to all federal, state and local government web resources and services.